sensor_id;sensor_type;location;lat;lon;timestamp;P1;durP1;ratioP1;P2;durP2;ratioP2
51491;SDS011;37569;50.548;8.778;2023-08-06T00:02:30;7.9;;;7.1;;
51491;SDS011;37569;50.548;8.778;2023-08-06T00:07:30;7.2;;;6.5;;
51491;SDS011;37569;50.548;8.778;2023-08-06T00:12:31;8.8;;;6.6;;
51491;SDS011;37569;50.548;8.778;2023-08-06T00:17:33;7.8;;;7;;
51491;SDS011;37569;50.548;8.778;2023-08-06T00:22:32;7.6;;;6.9;;
51491;SDS011;37569;50.548;8.778;2023-08-06T00:27:33;9.2;;;7.6;;
51491;SDS011;37569;50.548;8.778;2023-08-06T00:32:34;10.5;;;7.6;;
51491;SDS011;37569;50.548;8.778;2023-08-06T00:37:34;10.4;;;7.5;;
51491;SDS011;37569;50.548;8.778;2023-08-06T00:42:35;8.4;;;7.5;;
51491;SDS011;37569;50.548;8.778;2023-08-06T00:47:36;9.2;;;7.4;;
51491;SDS011;37569;50.548;8.778;2023-08-06T00:52:37;9.7;;;7.5;;
51491;SDS011;37569;50.548;8.778;2023-08-06T00:57:37;8.4;;;7.6;;
51491;SDS011;37569;50.548;8.778;2023-08-06T01:02:38;9.3;;;7.5;;
51491;SDS011;37569;50.548;8.778;2023-08-06T01:07:43;8.5;;;7.4;;
51491;SDS011;37569;50.548;8.778;2023-08-06T01:12:41;9.7;;;7.5;;
51491;SDS011;37569;50.548;8.778;2023-08-06T01:17:40;9.3;;;7.5;;
51491;SDS011;37569;50.548;8.778;2023-08-06T01:22:41;8.5;;;7.6;;
51491;SDS011;37569;50.548;8.778;2023-08-06T01:27:43;9.2;;;8;;
51491;SDS011;37569;50.548;8.778;2023-08-06T01:32:43;10.2;;;8;;
51491;SDS011;37569;50.548;8.778;2023-08-06T01:37:43;9.8;;;7.9;;
51491;SDS011;37569;50.548;8.778;2023-08-06T01:42:43;10;;;8.4;;
51491;SDS011;37569;50.548;8.778;2023-08-06T01:47:44;10.4;;;8.5;;
51491;SDS011;37569;50.548;8.778;2023-08-06T01:52:45;10;;;9;;
51491;SDS011;37569;50.548;8.778;2023-08-06T01:57:45;11;;;8.8;;
51491;SDS011;37569;50.548;8.778;2023-08-06T02:02:46;11.5;;;8.6;;
51491;SDS011;37569;50.548;8.778;2023-08-06T02:07:47;11;;;8.4;;
51491;SDS011;37569;50.548;8.778;2023-08-06T02:12:47;12.3;;;8.8;;
51491;SDS011;37569;50.548;8.778;2023-08-06T02:17:48;10.5;;;8.6;;
51491;SDS011;37569;50.548;8.778;2023-08-06T02:22:49;12;;;9.2;;
51491;SDS011;37569;50.548;8.778;2023-08-06T02:27:49;9.5;;;8.2;;
51491;SDS011;37569;50.548;8.778;2023-08-06T02:32:50;10;;;8.2;;
51491;SDS011;37569;50.548;8.778;2023-08-06T02:37:50;11.1;;;8.7;;
51491;SDS011;37569;50.548;8.778;2023-08-06T02:42:51;10.7;;;8.9;;
51491;SDS011;37569;50.548;8.778;2023-08-06T02:47:52;10.1;;;8.9;;
51491;SDS011;37569;50.548;8.778;2023-08-06T02:52:52;10.3;;;9.1;;
51491;SDS011;37569;50.548;8.778;2023-08-06T02:57:53;12.8;;;9.4;;
51491;SDS011;37569;50.548;8.778;2023-08-06T03:02:54;12.2;;;10;;
51491;SDS011;37569;50.548;8.778;2023-08-06T03:07:54;10.4;;;9.3;;
51491;SDS011;37569;50.548;8.778;2023-08-06T03:12:55;12.2;;;10;;
51491;SDS011;37569;50.548;8.778;2023-08-06T03:17:55;10.1;;;9.1;;
51491;SDS011;37569;50.548;8.778;2023-08-06T03:22:56;12.2;;;9.2;;
51491;SDS011;37569;50.548;8.778;2023-08-06T03:27:57;11.9;;;9.5;;
51491;SDS011;37569;50.548;8.778;2023-08-06T03:32:57;10.3;;;9.2;;
51491;SDS011;37569;50.548;8.778;2023-08-06T03:37:58;11.8;;;9.6;;
51491;SDS011;37569;50.548;8.778;2023-08-06T03:42:59;13;;;9.5;;
51491;SDS011;37569;50.548;8.778;2023-08-06T03:47:59;12.1;;;9.4;;
51491;SDS011;37569;50.548;8.778;2023-08-06T03:53:00;13.6;;;10.3;;
51491;SDS011;37569;50.548;8.778;2023-08-06T03:58:01;12.3;;;9.6;;
51491;SDS011;37569;50.548;8.778;2023-08-06T04:03:01;11.6;;;9.4;;
51491;SDS011;37569;50.548;8.778;2023-08-06T04:08:02;11.8;;;9.9;;
51491;SDS011;37569;50.548;8.778;2023-08-06T04:13:02;11.6;;;10;;
51491;SDS011;37569;50.548;8.778;2023-08-06T04:18:03;10.1;;;8.6;;
51491;SDS011;37569;50.548;8.778;2023-08-06T04:23:05;11.7;;;8.6;;
51491;SDS011;37569;50.548;8.778;2023-08-06T04:28:04;10.3;;;7.9;;
51491;SDS011;37569;50.548;8.778;2023-08-06T04:33:05;8.5;;;7.5;;
51491;SDS011;37569;50.548;8.778;2023-08-06T04:38:06;10;;;7.3;;
51491;SDS011;37569;50.548;8.778;2023-08-06T04:43:06;8.8;;;7.2;;
51491;SDS011;37569;50.548;8.778;2023-08-06T04:48:07;9.4;;;6.9;;
51491;SDS011;37569;50.548;8.778;2023-08-06T04:53:08;7.8;;;7;;
51491;SDS011;37569;50.548;8.778;2023-08-06T04:58:09;8.6;;;6.9;;
51491;SDS011;37569;50.548;8.778;2023-08-06T05:03:09;7.4;;;6.2;;
51491;SDS011;37569;50.548;8.778;2023-08-06T05:08:13;9.2;;;6.5;;
51491;SDS011;37569;50.548;8.778;2023-08-06T05:13:10;8.1;;;6.2;;
51491;SDS011;37569;50.548;8.778;2023-08-06T05:18:11;6.8;;;6.1;;
51491;SDS011;37569;50.548;8.778;2023-08-06T05:23:12;7.7;;;6.1;;
51491;SDS011;37569;50.548;8.778;2023-08-06T05:28:12;8.4;;;6.3;;
51491;SDS011;37569;50.548;8.778;2023-08-06T05:33:13;6.8;;;6.1;;
51491;SDS011;37569;50.548;8.778;2023-08-06T05:38:14;6.8;;;5.7;;
51491;SDS011;37569;50.548;8.778;2023-08-06T05:43:14;6.3;;;5.3;;
51491;SDS011;37569;50.548;8.778;2023-08-06T05:48:15;7.5;;;5.6;;
51491;SDS011;37569;50.548;8.778;2023-08-06T05:53:16;6.7;;;5.3;;
51491;SDS011;37569;50.548;8.778;2023-08-06T05:58:16;6.5;;;5.3;;
51491;SDS011;37569;50.548;8.778;2023-08-06T06:03:17;7.2;;;5.2;;
51491;SDS011;37569;50.548;8.778;2023-08-06T06:08:18;7.4;;;5.5;;
51491;SDS011;37569;50.548;8.778;2023-08-06T06:13:18;6.1;;;4.9;;
51491;SDS011;37569;50.548;8.778;2023-08-06T06:18:19;5.3;;;4.8;;
51491;SDS011;37569;50.548;8.778;2023-08-06T06:23:20;5.4;;;4.1;;
51491;SDS011;37569;50.548;8.778;2023-08-06T06:28:20;5.5;;;4.2;;
51491;SDS011;37569;50.548;8.778;2023-08-06T06:33:21;6.4;;;4;;
51491;SDS011;37569;50.548;8.778;2023-08-06T06:38:22;6.2;;;3.7;;
51491;SDS011;37569;50.548;8.778;2023-08-06T06:43:23;5.5;;;3.5;;
51491;SDS011;37569;50.548;8.778;2023-08-06T06:48:23;4.3;;;3.4;;
51491;SDS011;37569;50.548;8.778;2023-08-06T06:53:24;5.4;;;3.6;;
51491;SDS011;37569;50.548;8.778;2023-08-06T06:58:25;4.8;;;2.7;;
51491;SDS011;37569;50.548;8.778;2023-08-06T07:03:25;4.3;;;2.2;;
51491;SDS011;37569;50.548;8.778;2023-08-06T07:08:26;3.4;;;2.2;;
51491;SDS011;37569;50.548;8.778;2023-08-06T07:13:27;2.5;;;1.7;;
51491;SDS011;37569;50.548;8.778;2023-08-06T07:18:27;2.3;;;1.7;;
51491;SDS011;37569;50.548;8.778;2023-08-06T07:23:28;1.8;;;1.6;;
51491;SDS011;37569;50.548;8.778;2023-08-06T07:28:29;1.7;;;1.4;;
51491;SDS011;37569;50.548;8.778;2023-08-06T07:33:29;2.8;;;1.3;;
51491;SDS011;37569;50.548;8.778;2023-08-06T07:38:30;1.7;;;1.3;;
51491;SDS011;37569;50.548;8.778;2023-08-06T07:43:31;1.2;;;1.1;;
51491;SDS011;37569;50.548;8.778;2023-08-06T07:48:32;1.9;;;1.2;;
51491;SDS011;37569;50.548;8.778;2023-08-06T07:53:32;1.5;;;1.2;;
51491;SDS011;37569;50.548;8.778;2023-08-06T07:58:33;3.6;;;1.2;;
51491;SDS011;37569;50.548;8.778;2023-08-06T08:03:34;2.4;;;1;;
51491;SDS011;37569;50.548;8.778;2023-08-06T08:08:35;1.3;;;1;;
51491;SDS011;37569;50.548;8.778;2023-08-06T08:13:35;1.6;;;1.2;;
51491;SDS011;37569;50.548;8.778;2023-08-06T08:18:36;1;;;0.9;;
51491;SDS011;37569;50.548;8.778;2023-08-06T08:23:37;1.2;;;1;;
51491;SDS011;37569;50.548;8.778;2023-08-06T08:28:38;1.1;;;0.9;;
51491;SDS011;37569;50.548;8.778;2023-08-06T08:33:39;0.8;;;0.8;;
51491;SDS011;37569;50.548;8.778;2023-08-06T08:38:39;0.8;;;0.8;;
51491;SDS011;37569;50.548;8.778;2023-08-06T08:43:40;1.5;;;0.9;;
51491;SDS011;37569;50.548;8.778;2023-08-06T08:48:41;5.2;;;1.3;;
51491;SDS011;37569;50.548;8.778;2023-08-06T08:53:42;1;;;0.6;;
51491;SDS011;37569;50.548;8.778;2023-08-06T08:58:42;1.5;;;0.7;;
51491;SDS011;37569;50.548;8.778;2023-08-06T09:03:43;1;;;0.7;;
51491;SDS011;37569;50.548;8.778;2023-08-06T09:08:47;1.4;;;0.6;;
51491;SDS011;37569;50.548;8.778;2023-08-06T09:13:45;1.1;;;0.7;;
51491;SDS011;37569;50.548;8.778;2023-08-06T09:18:45;1.2;;;0.6;;
51491;SDS011;37569;50.548;8.778;2023-08-06T09:23:46;1.9;;;1;;
51491;SDS011;37569;50.548;8.778;2023-08-06T09:28:47;1.7;;;0.8;;
51491;SDS011;37569;50.548;8.778;2023-08-06T09:33:48;1;;;0.8;;
51491;SDS011;37569;50.548;8.778;2023-08-06T09:38:49;2.7;;;0.9;;
51491;SDS011;37569;50.548;8.778;2023-08-06T09:43:50;1;;;0.9;;
51491;SDS011;37569;50.548;8.778;2023-08-06T09:48:50;2.1;;;1.1;;
51491;SDS011;37569;50.548;8.778;2023-08-06T09:53:51;1.5;;;1;;
51491;SDS011;37569;50.548;8.778;2023-08-06T09:58:52;2.3;;;0.9;;
51491;SDS011;37569;50.548;8.778;2023-08-06T10:03:53;1.5;;;1;;
51491;SDS011;37569;50.548;8.778;2023-08-06T10:08:54;1.4;;;0.9;;
51491;SDS011;37569;50.548;8.778;2023-08-06T10:13:57;2.3;;;1;;
51491;SDS011;37569;50.548;8.778;2023-08-06T10:18:56;1.7;;;0.9;;
51491;SDS011;37569;50.548;8.778;2023-08-06T10:23:57;1.1;;;1;;
51491;SDS011;37569;50.548;8.778;2023-08-06T10:28:58;2.3;;;1;;
51491;SDS011;37569;50.548;8.778;2023-08-06T10:33:58;1.8;;;1.1;;
51491;SDS011;37569;50.548;8.778;2023-08-06T10:38:59;0.9;;;0.9;;
51491;SDS011;37569;50.548;8.778;2023-08-06T10:44:08;1.2;;;0.9;;
51491;SDS011;37569;50.548;8.778;2023-08-06T10:49:01;1.1;;;0.9;;
51491;SDS011;37569;50.548;8.778;2023-08-06T10:54:02;1.4;;;0.9;;
51491;SDS011;37569;50.548;8.778;2023-08-06T10:59:03;2.6;;;1.2;;
51491;SDS011;37569;50.548;8.778;2023-08-06T11:04:04;2.3;;;1.4;;
51491;SDS011;37569;50.548;8.778;2023-08-06T11:09:04;1.6;;;1.1;;
51491;SDS011;37569;50.548;8.778;2023-08-06T11:14:05;1.1;;;0.9;;
51491;SDS011;37569;50.548;8.778;2023-08-06T11:19:07;1;;;0.9;;
51491;SDS011;37569;50.548;8.778;2023-08-06T11:24:07;1;;;0.9;;
51491;SDS011;37569;50.548;8.778;2023-08-06T11:29:08;1.1;;;1;;
51491;SDS011;37569;50.548;8.778;2023-08-06T11:34:09;1.1;;;1;;
51491;SDS011;37569;50.548;8.778;2023-08-06T11:39:10;1;;;0.9;;
51491;SDS011;37569;50.548;8.778;2023-08-06T11:44:11;1.2;;;1;;
51491;SDS011;37569;50.548;8.778;2023-08-06T11:49:11;1.2;;;1;;
51491;SDS011;37569;50.548;8.778;2023-08-06T11:54:12;1.8;;;1.1;;
51491;SDS011;37569;50.548;8.778;2023-08-06T11:59:13;1.6;;;0.9;;
51491;SDS011;37569;50.548;8.778;2023-08-06T12:04:14;2.8;;;1.5;;
51491;SDS011;37569;50.548;8.778;2023-08-06T12:09:15;1.1;;;1;;
51491;SDS011;37569;50.548;8.778;2023-08-06T12:14:16;1.1;;;1;;
51491;SDS011;37569;50.548;8.778;2023-08-06T12:19:17;1.3;;;1.2;;
51491;SDS011;37569;50.548;8.778;2023-08-06T12:24:17;1.7;;;0.9;;
51491;SDS011;37569;50.548;8.778;2023-08-06T12:29:18;1.8;;;0.9;;
51491;SDS011;37569;50.548;8.778;2023-08-06T12:34:19;1.2;;;0.9;;
51491;SDS011;37569;50.548;8.778;2023-08-06T12:39:20;3.5;;;0.9;;
51491;SDS011;37569;50.548;8.778;2023-08-06T12:44:21;3.7;;;1.3;;
51491;SDS011;37569;50.548;8.778;2023-08-06T12:49:22;4.7;;;1.9;;
51491;SDS011;37569;50.548;8.778;2023-08-06T12:54:22;0.9;;;0.8;;
51491;SDS011;37569;50.548;8.778;2023-08-06T12:59:23;0.9;;;0.8;;
51491;SDS011;37569;50.548;8.778;2023-08-06T13:04:24;3.2;;;1.1;;
51491;SDS011;37569;50.548;8.778;2023-08-06T13:09:24;2;;;0.9;;
51491;SDS011;37569;50.548;8.778;2023-08-06T13:14:25;1.5;;;0.8;;
51491;SDS011;37569;50.548;8.778;2023-08-06T13:19:26;2.8;;;1.1;;
51491;SDS011;37569;50.548;8.778;2023-08-06T13:24:26;2.9;;;1;;
51491;SDS011;37569;50.548;8.778;2023-08-06T13:29:27;1.6;;;1.2;;
51491;SDS011;37569;50.548;8.778;2023-08-06T13:34:28;1.8;;;1.1;;
51491;SDS011;37569;50.548;8.778;2023-08-06T13:39:28;1.7;;;1.3;;
51491;SDS011;37569;50.548;8.778;2023-08-06T13:44:29;2.4;;;1.3;;
51491;SDS011;37569;50.548;8.778;2023-08-06T13:49:30;2.3;;;1.3;;
51491;SDS011;37569;50.548;8.778;2023-08-06T13:54:30;1.2;;;1.1;;
51491;SDS011;37569;50.548;8.778;2023-08-06T13:59:31;2.9;;;1.5;;
51491;SDS011;37569;50.548;8.778;2023-08-06T14:04:32;2.3;;;1.8;;
51491;SDS011;37569;50.548;8.778;2023-08-06T14:09:32;1.9;;;1.5;;
51491;SDS011;37569;50.548;8.778;2023-08-06T14:14:33;1.5;;;1.3;;
51491;SDS011;37569;50.548;8.778;2023-08-06T14:19:34;1.4;;;1.2;;
51491;SDS011;37569;50.548;8.778;2023-08-06T14:24:34;1.4;;;1.3;;
51491;SDS011;37569;50.548;8.778;2023-08-06T14:29:35;1.3;;;1.1;;
51491;SDS011;37569;50.548;8.778;2023-08-06T14:34:35;1.2;;;1.1;;
51491;SDS011;37569;50.548;8.778;2023-08-06T14:39:36;3.2;;;1.1;;
51491;SDS011;37569;50.548;8.778;2023-08-06T14:44:37;2;;;1.2;;
51491;SDS011;37569;50.548;8.778;2023-08-06T14:49:37;1.3;;;1.2;;
51491;SDS011;37569;50.548;8.778;2023-08-06T14:54:38;3.2;;;1.5;;
51491;SDS011;37569;50.548;8.778;2023-08-06T14:59:39;3.1;;;1.4;;
51491;SDS011;37569;50.548;8.778;2023-08-06T15:04:39;2.4;;;1.4;;
51491;SDS011;37569;50.548;8.778;2023-08-06T15:09:40;1.4;;;1.2;;
51491;SDS011;37569;50.548;8.778;2023-08-06T15:14:40;1.6;;;1.1;;
51491;SDS011;37569;50.548;8.778;2023-08-06T15:19:41;1.6;;;1.1;;
51491;SDS011;37569;50.548;8.778;2023-08-06T15:24:42;2.3;;;1.7;;
51491;SDS011;37569;50.548;8.778;2023-08-06T15:29:42;1.2;;;1.1;;
51491;SDS011;37569;50.548;8.778;2023-08-06T15:34:43;3.2;;;1.5;;
51491;SDS011;37569;50.548;8.778;2023-08-06T15:39:44;1.8;;;1.1;;
51491;SDS011;37569;50.548;8.778;2023-08-06T15:44:44;2;;;1.3;;
51491;SDS011;37569;50.548;8.778;2023-08-06T15:49:45;1.3;;;1.2;;
51491;SDS011;37569;50.548;8.778;2023-08-06T15:54:46;1.9;;;1.4;;
51491;SDS011;37569;50.548;8.778;2023-08-06T15:59:46;2.7;;;1.4;;
51491;SDS011;37569;50.548;8.778;2023-08-06T16:04:47;3.3;;;1.3;;
51491;SDS011;37569;50.548;8.778;2023-08-06T16:09:48;4;;;1.4;;
51491;SDS011;37569;50.548;8.778;2023-08-06T16:14:48;2;;;1.4;;
51491;SDS011;37569;50.548;8.778;2023-08-06T16:19:49;2.2;;;1.4;;
51491;SDS011;37569;50.548;8.778;2023-08-06T16:24:49;2.5;;;1.4;;
51491;SDS011;37569;50.548;8.778;2023-08-06T16:29:50;1.3;;;1.2;;
51491;SDS011;37569;50.548;8.778;2023-08-06T16:34:51;1.8;;;1.3;;
51491;SDS011;37569;50.548;8.778;2023-08-06T16:39:51;1.8;;;1.4;;
51491;SDS011;37569;50.548;8.778;2023-08-06T16:44:52;2.2;;;1.4;;
51491;SDS011;37569;50.548;8.778;2023-08-06T16:49:53;3.3;;;1.6;;
51491;SDS011;37569;50.548;8.778;2023-08-06T16:54:53;2.2;;;1.5;;
51491;SDS011;37569;50.548;8.778;2023-08-06T16:59:54;2.3;;;1.4;;
51491;SDS011;37569;50.548;8.778;2023-08-06T17:04:54;2;;;1.4;;
51491;SDS011;37569;50.548;8.778;2023-08-06T17:09:55;2.9;;;1.4;;
51491;SDS011;37569;50.548;8.778;2023-08-06T17:14:55;3.5;;;1.4;;
51491;SDS011;37569;50.548;8.778;2023-08-06T17:19:56;2.9;;;1.5;;
51491;SDS011;37569;50.548;8.778;2023-08-06T17:24:57;2.3;;;1.4;;
51491;SDS011;37569;50.548;8.778;2023-08-06T17:29:57;2.7;;;1.7;;
51491;SDS011;37569;50.548;8.778;2023-08-06T17:34:58;2.6;;;1.6;;
51491;SDS011;37569;50.548;8.778;2023-08-06T17:39:58;2.4;;;1.6;;
51491;SDS011;37569;50.548;8.778;2023-08-06T17:44:59;2.3;;;1.6;;
51491;SDS011;37569;50.548;8.778;2023-08-06T17:50:00;2.3;;;1.6;;
51491;SDS011;37569;50.548;8.778;2023-08-06T17:55:00;1.8;;;1.7;;
51491;SDS011;37569;50.548;8.778;2023-08-06T18:00:01;2.2;;;1.7;;
51491;SDS011;37569;50.548;8.778;2023-08-06T18:05:01;2.9;;;1.8;;
51491;SDS011;37569;50.548;8.778;2023-08-06T18:10:02;2.4;;;1.7;;
51491;SDS011;37569;50.548;8.778;2023-08-06T18:15:03;3.8;;;1.7;;
51491;SDS011;37569;50.548;8.778;2023-08-06T18:20:04;2.8;;;1.7;;
51491;SDS011;37569;50.548;8.778;2023-08-06T18:25:04;1.7;;;1.6;;
51491;SDS011;37569;50.548;8.778;2023-08-06T18:30:05;3.3;;;1.7;;
51491;SDS011;37569;50.548;8.778;2023-08-06T18:35:06;2.3;;;1.9;;
51491;SDS011;37569;50.548;8.778;2023-08-06T18:40:06;2.3;;;1.5;;
51491;SDS011;37569;50.548;8.778;2023-08-06T18:45:07;2.7;;;1.5;;
51491;SDS011;37569;50.548;8.778;2023-08-06T18:50:07;3.7;;;1.7;;
51491;SDS011;37569;50.548;8.778;2023-08-06T18:55:08;3.4;;;1.7;;
51491;SDS011;37569;50.548;8.778;2023-08-06T19:00:08;2.7;;;1.7;;
51491;SDS011;37569;50.548;8.778;2023-08-06T19:05:09;2.5;;;1.9;;
51491;SDS011;37569;50.548;8.778;2023-08-06T19:10:09;1.8;;;1.6;;
51491;SDS011;37569;50.548;8.778;2023-08-06T19:15:10;4.1;;;1.8;;
51491;SDS011;37569;50.548;8.778;2023-08-06T19:20:11;4.1;;;1.7;;
51491;SDS011;37569;50.548;8.778;2023-08-06T19:25:11;1.9;;;1.6;;
51491;SDS011;37569;50.548;8.778;2023-08-06T19:30:12;3.1;;;1.8;;
51491;SDS011;37569;50.548;8.778;2023-08-06T19:35:12;2.8;;;1.6;;
51491;SDS011;37569;50.548;8.778;2023-08-06T19:40:13;4.1;;;1.9;;
51491;SDS011;37569;50.548;8.778;2023-08-06T19:45:14;3.3;;;1.9;;
51491;SDS011;37569;50.548;8.778;2023-08-06T19:50:14;3.3;;;1.6;;
51491;SDS011;37569;50.548;8.778;2023-08-06T19:55:15;2;;;1.6;;
51491;SDS011;37569;50.548;8.778;2023-08-06T20:00:15;3;;;1.7;;
51491;SDS011;37569;50.548;8.778;2023-08-06T20:05:16;2.7;;;1.8;;
51491;SDS011;37569;50.548;8.778;2023-08-06T20:10:16;2.3;;;1.6;;
51491;SDS011;37569;50.548;8.778;2023-08-06T20:15:17;2.5;;;1.7;;
51491;SDS011;37569;50.548;8.778;2023-08-06T20:20:18;2.5;;;1.8;;
51491;SDS011;37569;50.548;8.778;2023-08-06T20:25:18;3.3;;;1.6;;
51491;SDS011;37569;50.548;8.778;2023-08-06T20:30:19;3;;;1.8;;
51491;SDS011;37569;50.548;8.778;2023-08-06T20:35:19;2.4;;;1.4;;
51491;SDS011;37569;50.548;8.778;2023-08-06T20:40:20;2.9;;;1.7;;
51491;SDS011;37569;50.548;8.778;2023-08-06T20:45:20;2.7;;;1.7;;
51491;SDS011;37569;50.548;8.778;2023-08-06T20:50:21;2.3;;;1.5;;
51491;SDS011;37569;50.548;8.778;2023-08-06T20:55:24;2.1;;;1.5;;
51491;SDS011;37569;50.548;8.778;2023-08-06T21:00:22;2.3;;;1.4;;
51491;SDS011;37569;50.548;8.778;2023-08-06T21:05:23;1.6;;;1.2;;
51491;SDS011;37569;50.548;8.778;2023-08-06T21:10:23;2.3;;;1.5;;
51491;SDS011;37569;50.548;8.778;2023-08-06T21:15:24;1.8;;;1.1;;
51491;SDS011;37569;50.548;8.778;2023-08-06T21:20:24;1.4;;;1.2;;
51491;SDS011;37569;50.548;8.778;2023-08-06T21:25:25;2.4;;;1.1;;
51491;SDS011;37569;50.548;8.778;2023-08-06T21:30:25;1.2;;;1.1;;
51491;SDS011;37569;50.548;8.778;2023-08-06T21:35:26;1.7;;;1;;
51491;SDS011;37569;50.548;8.778;2023-08-06T21:40:26;1.7;;;1.1;;
51491;SDS011;37569;50.548;8.778;2023-08-06T21:45:28;1.1;;;1;;
51491;SDS011;37569;50.548;8.778;2023-08-06T21:50:28;1.4;;;1;;
51491;SDS011;37569;50.548;8.778;2023-08-06T21:55:29;1.1;;;0.9;;
51491;SDS011;37569;50.548;8.778;2023-08-06T22:00:29;3.6;;;1;;
51491;SDS011;37569;50.548;8.778;2023-08-06T22:05:29;2.2;;;1;;
51491;SDS011;37569;50.548;8.778;2023-08-06T22:10:30;1.3;;;1.1;;
51491;SDS011;37569;50.548;8.778;2023-08-06T22:15:30;1.3;;;0.9;;
51491;SDS011;37569;50.548;8.778;2023-08-06T22:20:31;3.1;;;1.2;;
51491;SDS011;37569;50.548;8.778;2023-08-06T22:25:31;1.5;;;1;;
51491;SDS011;37569;50.548;8.778;2023-08-06T22:30:32;1.5;;;0.9;;
51491;SDS011;37569;50.548;8.778;2023-08-06T22:35:33;1.2;;;0.8;;
51491;SDS011;37569;50.548;8.778;2023-08-06T22:40:33;3.2;;;1;;
51491;SDS011;37569;50.548;8.778;2023-08-06T22:45:34;2;;;0.8;;
51491;SDS011;37569;50.548;8.778;2023-08-06T22:50:34;1.2;;;1;;
51491;SDS011;37569;50.548;8.778;2023-08-06T22:55:35;3.4;;;1.1;;
51491;SDS011;37569;50.548;8.778;2023-08-06T23:00:35;3.4;;;1.4;;
51491;SDS011;37569;50.548;8.778;2023-08-06T23:05:36;1.7;;;1.1;;
51491;SDS011;37569;50.548;8.778;2023-08-06T23:10:37;1.5;;;1.2;;
51491;SDS011;37569;50.548;8.778;2023-08-06T23:15:37;3.8;;;1.5;;
51491;SDS011;37569;50.548;8.778;2023-08-06T23:20:38;2.9;;;1.3;;
51491;SDS011;37569;50.548;8.778;2023-08-06T23:25:38;2.2;;;1.2;;
51491;SDS011;37569;50.548;8.778;2023-08-06T23:30:39;2.8;;;1.3;;
51491;SDS011;37569;50.548;8.778;2023-08-06T23:35:39;2.3;;;1.5;;
51491;SDS011;37569;50.548;8.778;2023-08-06T23:40:40;3.7;;;1.4;;
51491;SDS011;37569;50.548;8.778;2023-08-06T23:45:41;2.1;;;1.3;;
51491;SDS011;37569;50.548;8.778;2023-08-06T23:50:41;4.2;;;1.3;;
51491;SDS011;37569;50.548;8.778;2023-08-06T23:55:42;2;;;1.2;;
